createdAt,value
2023-04-04T00:03:05.696Z,34.86
2023-04-04T00:06:28.055Z,34.88
2023-04-04T00:09:52.899Z,35.02
2023-04-04T00:13:37.508Z,34.99
2023-04-04T00:17:15.208Z,35.08
2023-04-04T00:20:40.130Z,35.18
2023-04-04T00:24:04.884Z,34.95
2023-04-04T00:27:28.170Z,35.17
2023-04-04T00:30:51.043Z,35.20
2023-04-04T00:34:20.139Z,35.05
2023-04-04T00:37:46.396Z,35.14
2023-04-04T00:41:11.532Z,35.24
2023-04-04T00:44:56.178Z,35.42
2023-04-04T00:48:23.366Z,35.37
2023-04-04T00:51:45.050Z,35.35
2023-04-04T00:55:18.430Z,35.49
2023-04-04T00:59:27.753Z,35.50
2023-04-04T01:03:00.734Z,35.36
2023-04-04T01:07:00.933Z,35.48
2023-04-04T01:10:43.178Z,35.54
2023-04-04T01:14:05.623Z,35.85
2023-04-04T01:21:27.575Z,35.80
2023-04-04T01:25:03.125Z,35.74
2023-04-04T01:28:33.607Z,35.88
2023-04-04T01:32:31.143Z,35.80
2023-04-04T01:36:29.508Z,35.80
2023-04-04T01:43:59.071Z,35.96
2023-04-04T01:47:24.363Z,35.98
2023-04-04T01:50:55.285Z,35.95
2023-04-04T01:54:38.030Z,36.06
2023-04-04T01:58:05.074Z,36.14
2023-04-04T02:01:26.936Z,36.22
2023-04-04T02:04:53.932Z,36.25
2023-04-04T02:08:24.887Z,36.24
2023-04-04T02:16:12.734Z,36.35
2023-04-04T02:19:35.328Z,36.42
2023-04-04T02:23:06.470Z,36.37
2023-04-04T02:26:28.243Z,36.47
2023-04-04T02:30:01.000Z,36.44
2023-04-04T02:33:37.352Z,36.51
2023-04-04T02:37:06.829Z,36.46
2023-04-04T02:40:32.810Z,36.64
2023-04-04T02:44:19.099Z,36.63
2023-04-04T02:47:51.928Z,36.73
2023-04-04T02:51:21.772Z,36.85
2023-04-04T02:54:48.686Z,36.92
2023-04-04T02:58:33.246Z,36.68
2023-04-04T03:01:59.325Z,36.84
2023-04-04T03:05:36.606Z,36.77
2023-04-04T03:09:00.488Z,36.84
2023-04-04T03:12:32.337Z,36.88
2023-04-04T03:16:18.309Z,36.96
2023-04-04T03:19:52.329Z,36.95
2023-04-04T03:23:14.187Z,36.93
2023-04-04T03:26:52.231Z,37.02
2023-04-04T03:34:10.939Z,37.10
2023-04-04T03:37:38.278Z,36.95
2023-04-04T03:41:16.212Z,37.14
2023-04-04T03:44:50.217Z,36.97
2023-04-04T03:48:50.603Z,37.07
2023-04-04T03:52:12.358Z,37.11
2023-04-04T03:55:47.972Z,37.17
2023-04-04T03:59:15.125Z,37.21
2023-04-04T04:02:41.744Z,37.16
2023-04-04T04:06:26.609Z,37.38
2023-04-04T04:10:00.572Z,37.43
2023-04-04T04:13:29.670Z,37.28
2023-04-04T04:17:02.484Z,37.24
2023-04-04T04:20:25.416Z,37.40
2023-04-04T04:23:52.416Z,37.34
2023-04-04T04:27:24.238Z,37.26
2023-04-04T04:30:50.580Z,37.43
2023-04-04T04:34:28.435Z,37.40
2023-04-04T04:37:55.227Z,37.36
2023-04-04T04:41:23.435Z,37.48
2023-04-04T04:45:03.349Z,37.35
2023-04-04T04:48:28.040Z,37.51
2023-04-04T04:51:54.160Z,37.49
2023-04-04T04:55:18.279Z,37.31
2023-04-04T04:58:45.605Z,37.40
2023-04-04T05:02:14.980Z,37.41
2023-04-04T05:05:45.016Z,37.29
2023-04-04T05:09:20.657Z,37.44
2023-04-04T05:12:46.738Z,37.39
2023-04-04T05:16:13.220Z,37.30
2023-04-04T05:19:37.288Z,37.22
2023-04-04T05:23:02.008Z,37.14
2023-04-04T05:26:29.721Z,37.16
2023-04-04T05:30:04.779Z,37.14
2023-04-04T05:33:46.863Z,37.11
2023-04-04T05:37:27.112Z,37.13
2023-04-04T05:40:56.357Z,37.02
2023-04-04T05:44:21.508Z,37.03
2023-04-04T05:47:44.008Z,37.08
2023-04-04T05:51:06.499Z,37.05
2023-04-04T05:54:34.673Z,37.01
2023-04-04T05:58:02.997Z,36.80
2023-04-04T06:01:36.880Z,36.88
2023-04-04T06:05:08.928Z,37.01
2023-04-04T06:08:40.155Z,36.91
2023-04-04T06:12:12.186Z,36.84
2023-04-04T06:15:34.401Z,36.77
2023-04-04T06:18:59.343Z,36.81
2023-04-04T06:22:25.198Z,36.64
2023-04-04T06:25:53.537Z,36.81
2023-04-04T06:29:15.833Z,36.67
2023-04-04T06:32:45.492Z,36.62
2023-04-04T06:36:13.904Z,36.80
2023-04-04T06:39:35.985Z,36.77
2023-04-04T06:43:05.180Z,36.66
2023-04-04T06:46:33.516Z,36.86
2023-04-04T06:49:55.248Z,36.75
2023-04-04T06:53:21.296Z,36.79
2023-04-04T06:56:43.392Z,36.56
2023-04-04T07:00:07.939Z,36.28
2023-04-04T07:03:37.559Z,34.65
2023-04-04T07:07:00.945Z,32.51
2023-04-04T07:10:31.848Z,30.61
2023-04-04T07:13:53.514Z,29.51
2023-04-04T07:17:25.606Z,28.28
2023-04-04T07:20:49.879Z,27.08
2023-04-04T07:24:11.577Z,25.73
2023-04-04T07:27:33.171Z,24.77
2023-04-04T07:30:54.761Z,23.45
2023-04-04T07:34:23.900Z,22.76
2023-04-04T07:38:01.572Z,23.01
2023-04-04T07:41:32.456Z,22.93
2023-04-04T07:45:23.575Z,23.10
2023-04-04T07:52:52.463Z,22.58
2023-04-04T07:56:14.082Z,22.59
2023-04-04T07:59:43.285Z,22.71
2023-04-04T08:03:13.965Z,22.48
2023-04-04T08:06:46.681Z,23.04
2023-04-04T08:10:17.936Z,23.78
2023-04-04T08:13:40.546Z,24.42
2023-04-04T08:17:04.895Z,25.11
2023-04-04T08:20:28.505Z,25.78
2023-04-04T08:23:50.091Z,26.53
2023-04-04T08:27:23.976Z,26.54
2023-04-04T08:30:45.675Z,25.42
2023-04-04T08:34:11.248Z,24.32
2023-04-04T08:37:34.030Z,23.99
2023-04-04T08:40:57.237Z,24.10
2023-04-04T08:44:24.964Z,24.49
2023-04-04T08:48:04.701Z,23.93
2023-04-04T08:51:38.027Z,23.11
2023-04-04T08:55:04.023Z,23.05
2023-04-04T08:58:31.868Z,23.42
2023-04-04T09:02:20.282Z,23.91
2023-04-04T09:05:44.738Z,24.68
2023-04-04T09:09:12.973Z,25.16
2023-04-04T09:12:43.232Z,25.70
2023-04-04T09:16:05.156Z,25.97
2023-04-04T09:19:30.992Z,26.30
2023-04-04T09:22:52.715Z,26.56
2023-04-04T09:26:17.320Z,26.08
2023-04-04T09:29:39.978Z,26.00
2023-04-04T09:33:04.534Z,25.87
2023-04-04T09:36:42.243Z,23.77
2023-04-04T09:40:04.772Z,23.74
2023-04-04T09:43:29.447Z,24.02
2023-04-04T09:47:03.146Z,24.16
2023-04-04T09:50:30.425Z,23.36
2023-04-04T09:54:02.608Z,22.76
2023-04-04T09:57:36.428Z,28.12
2023-04-04T10:01:07.788Z,25.08
2023-04-04T10:04:33.030Z,23.75
2023-04-04T10:07:56.819Z,23.26
2023-04-04T10:11:44.415Z,22.70
2023-04-04T10:15:09.828Z,22.46
2023-04-04T10:18:39.479Z,22.58
2023-04-04T10:22:02.589Z,22.74
2023-04-04T10:25:25.202Z,23.16
2023-04-04T10:28:47.690Z,23.41
2023-04-04T10:32:10.802Z,23.73
2023-04-04T10:35:37.247Z,23.70
2023-04-04T10:39:13.106Z,23.73
2023-04-04T10:42:44.195Z,23.78
2023-04-04T10:46:21.042Z,23.67
2023-04-04T10:49:45.294Z,23.65
2023-04-04T10:53:07.677Z,23.90
2023-04-04T10:56:29.895Z,24.17
2023-04-04T11:00:24.643Z,24.49
2023-04-04T11:04:23.009Z,24.60
2023-04-04T11:08:00.689Z,24.90
2023-04-04T11:11:37.951Z,25.15
2023-04-04T11:15:10.716Z,27.24
2023-04-04T11:18:37.121Z,28.46
2023-04-04T11:21:59.140Z,28.49
2023-04-04T11:25:32.355Z,28.50
2023-04-04T11:29:21.439Z,28.52
2023-04-04T11:32:59.929Z,28.55
2023-04-04T11:36:48.669Z,28.68
2023-04-04T11:40:21.091Z,28.62
2023-04-04T11:43:49.148Z,28.78
2023-04-04T11:47:24.281Z,28.82
2023-04-04T11:50:50.405Z,28.96
2023-04-04T11:54:17.828Z,29.31
2023-04-04T11:57:49.387Z,29.40
2023-04-04T12:01:11.538Z,29.49
2023-04-04T12:04:37.177Z,29.40
2023-04-04T12:08:02.149Z,29.29
2023-04-04T12:11:30.856Z,29.36
2023-04-04T12:14:58.082Z,29.27
2023-04-04T12:18:34.616Z,29.50
2023-04-04T12:21:58.306Z,29.56
2023-04-04T12:25:22.525Z,29.68
2023-04-04T12:28:45.631Z,29.77
2023-04-04T12:32:09.955Z,29.90
2023-04-04T12:35:32.292Z,30.06
2023-04-04T12:43:03.677Z,30.27
2023-04-04T12:46:41.753Z,30.47
2023-04-04T12:50:09.414Z,30.67
2023-04-04T12:53:35.260Z,30.58
2023-04-04T12:57:01.529Z,30.69
2023-04-04T13:00:25.056Z,30.78
2023-04-04T13:03:47.454Z,30.85
2023-04-04T13:07:23.851Z,30.80
2023-04-04T13:11:09.863Z,30.79
2023-04-04T13:15:13.733Z,30.80
2023-04-04T13:18:45.860Z,30.77
2023-04-04T13:22:13.993Z,30.66
2023-04-04T13:25:39.698Z,30.77
2023-04-04T13:29:01.778Z,30.84
2023-04-04T13:32:25.727Z,30.88
2023-04-04T13:35:51.421Z,31.01
2023-04-04T13:39:13.100Z,31.00
2023-04-04T13:42:35.465Z,31.04
2023-04-04T13:45:57.362Z,30.99
2023-04-04T13:49:22.269Z,30.96
2023-04-04T13:52:44.059Z,31.09
2023-04-04T13:59:31.681Z,31.15
2023-04-04T14:02:55.846Z,31.20
2023-04-04T14:06:25.905Z,31.16
2023-04-04T14:09:48.289Z,31.07
2023-04-04T14:13:19.944Z,31.08
2023-04-04T14:16:41.868Z,31.15
2023-04-04T14:20:04.345Z,31.19
2023-04-04T14:23:27.551Z,31.32
2023-04-04T14:26:49.143Z,31.29
2023-04-04T14:30:11.750Z,31.36
2023-04-04T14:33:33.538Z,31.55
2023-04-04T14:36:55.114Z,31.67
2023-04-04T14:40:28.317Z,31.76
2023-04-04T14:43:55.273Z,31.96
2023-04-04T14:47:27.076Z,32.02
2023-04-04T14:50:48.740Z,31.97
2023-04-04T14:54:10.768Z,31.96
2023-04-04T14:57:39.269Z,31.88
2023-04-04T15:01:05.984Z,31.86
2023-04-04T15:04:27.909Z,31.77
2023-04-04T15:07:49.916Z,31.94
2023-04-04T15:11:13.366Z,32.03
2023-04-04T15:14:35.002Z,32.07
2023-04-04T15:18:00.995Z,32.29
2023-04-04T15:21:28.413Z,32.38
2023-04-04T15:24:50.290Z,32.50
2023-04-04T15:28:14.928Z,32.68
2023-04-04T15:31:36.585Z,32.89
2023-04-04T15:34:58.651Z,32.77
2023-04-04T15:38:22.213Z,33.01
2023-04-04T15:41:44.782Z,33.11
2023-04-04T15:45:08.253Z,33.22
2023-04-04T15:48:29.989Z,34.09
2023-04-04T15:51:55.274Z,34.88
2023-04-04T15:55:21.942Z,35.06
2023-04-04T15:58:43.894Z,35.17
2023-04-04T16:02:07.177Z,34.98
2023-04-04T16:05:37.307Z,34.91
2023-04-04T16:09:02.178Z,34.84
2023-04-04T16:12:23.783Z,34.69
2023-04-04T16:15:47.071Z,34.73
2023-04-04T16:29:05.993Z,38.98
2023-04-04T16:37:01.415Z,40.20
2023-04-04T16:45:11.062Z,39.87
2023-04-04T16:49:01.813Z,38.60
2023-04-04T16:56:09.097Z,35.57
2023-04-04T16:59:30.805Z,34.71
2023-04-04T17:02:53.452Z,34.28
2023-04-04T17:06:20.289Z,34.25
2023-04-04T17:09:51.797Z,34.18
2023-04-04T17:13:14.207Z,34.06
2023-04-04T17:16:37.194Z,33.95
2023-04-04T17:20:01.553Z,33.80
2023-04-04T17:23:23.246Z,33.99
2023-04-04T17:26:48.078Z,33.96
2023-04-04T17:30:15.797Z,33.97
2023-04-04T17:33:49.266Z,34.11
2023-04-04T17:37:11.639Z,34.03
2023-04-04T17:40:37.561Z,34.13
2023-04-04T17:43:59.192Z,34.13
2023-04-04T17:47:24.238Z,34.18
2023-04-04T17:50:50.590Z,34.51
2023-04-04T17:54:19.051Z,34.51
2023-04-04T17:57:45.268Z,34.43
2023-04-04T18:01:13.532Z,34.59
2023-04-04T18:04:41.103Z,34.57
2023-04-04T18:08:34.388Z,34.59
2023-04-04T18:12:03.551Z,34.79
2023-04-04T18:15:26.314Z,34.92
2023-04-04T18:18:50.986Z,34.78
2023-04-04T18:22:16.119Z,34.97
2023-04-04T18:25:40.241Z,34.91
2023-04-04T18:29:07.381Z,34.92
2023-04-04T18:32:35.341Z,34.88
2023-04-04T18:36:04.070Z,35.02
2023-04-04T18:39:26.255Z,35.15
2023-04-04T18:42:51.779Z,35.09
2023-04-04T18:46:19.003Z,35.15
2023-04-04T18:49:42.623Z,35.23
2023-04-04T18:53:11.452Z,35.36
2023-04-04T18:56:33.129Z,35.34
2023-04-04T19:00:00.119Z,35.38
2023-04-04T19:03:25.320Z,35.33
2023-04-04T19:06:58.428Z,35.41
2023-04-04T19:10:20.162Z,35.46
2023-04-04T19:13:42.294Z,35.38
2023-04-04T19:17:03.962Z,35.60
2023-04-04T19:20:29.116Z,35.69
2023-04-04T19:23:53.173Z,35.65
2023-04-04T19:27:29.222Z,35.55
2023-04-04T19:30:59.930Z,35.74
2023-04-04T19:34:22.132Z,35.63
2023-04-04T19:37:46.442Z,35.86
2023-04-04T19:41:18.110Z,35.78
2023-04-04T19:44:42.787Z,35.82
2023-04-04T19:48:13.209Z,35.96
2023-04-04T19:51:41.942Z,35.86
2023-04-04T19:55:13.000Z,35.85
2023-04-04T19:58:35.617Z,36.03
2023-04-04T20:02:07.070Z,36.10
2023-04-04T20:05:33.813Z,36.23
2023-04-04T20:09:07.951Z,36.18
2023-04-04T20:12:33.724Z,36.24
2023-04-04T20:15:59.838Z,36.20
2023-04-04T20:19:28.374Z,36.28
2023-04-04T20:22:52.952Z,36.27
2023-04-04T20:26:40.739Z,36.23
2023-04-04T20:30:08.024Z,36.46
2023-04-04T20:33:34.003Z,36.45
2023-04-04T20:37:08.290Z,36.51
2023-04-04T20:40:45.524Z,36.61
2023-04-04T20:44:24.621Z,36.53
2023-04-04T20:47:51.550Z,36.74
2023-04-04T20:51:35.180Z,36.59
2023-04-04T20:55:04.325Z,36.78
2023-04-04T20:58:32.709Z,36.87
2023-04-04T21:02:12.405Z,36.84
2023-04-04T21:05:36.675Z,36.81
2023-04-04T21:09:17.171Z,36.93
2023-04-04T21:12:50.303Z,36.86
2023-04-04T21:16:13.464Z,36.79
2023-04-04T21:23:57.679Z,37.08
2023-04-04T21:27:38.057Z,37.19
2023-04-04T21:31:22.753Z,37.16
2023-04-04T21:35:00.610Z,37.16
2023-04-04T21:38:50.860Z,37.26
2023-04-04T21:42:27.712Z,37.45
2023-04-04T21:45:51.915Z,37.33
2023-04-04T21:49:18.862Z,37.40
2023-04-04T21:52:52.500Z,37.56
2023-04-04T21:56:19.158Z,37.35
2023-04-04T21:59:47.883Z,37.41
2023-04-04T22:03:14.948Z,37.45
2023-04-04T22:07:04.911Z,37.49
2023-04-04T22:10:38.451Z,37.69
2023-04-04T22:14:14.922Z,37.55
2023-04-04T22:17:40.862Z,37.90
2023-04-04T22:21:07.802Z,37.81
2023-04-04T22:24:41.730Z,37.75
2023-04-04T22:28:13.005Z,37.91
2023-04-04T22:35:42.584Z,37.95
2023-04-04T22:39:09.867Z,37.96
2023-04-04T22:42:48.068Z,38.11
2023-04-04T22:46:09.918Z,37.91
2023-04-04T22:49:41.664Z,38.02
2023-04-04T22:53:15.787Z,38.21
2023-04-04T22:56:44.305Z,38.16
2023-04-04T23:00:19.761Z,38.07
2023-04-04T23:03:45.184Z,38.06
2023-04-04T23:07:07.207Z,38.22
2023-04-04T23:10:30.850Z,38.23
2023-04-04T23:13:54.101Z,38.25
2023-04-04T23:17:18.293Z,38.23
2023-04-04T23:20:55.365Z,38.39
2023-04-04T23:24:39.130Z,38.29
2023-04-04T23:28:05.786Z,38.32
2023-04-04T23:31:32.477Z,38.38
2023-04-04T23:34:54.428Z,38.37
2023-04-04T23:38:18.376Z,38.47
2023-04-04T23:41:43.232Z,38.39
2023-04-04T23:45:08.242Z,38.44
2023-04-04T23:48:35.497Z,38.51
2023-04-04T23:52:03.335Z,38.58
2023-04-04T23:55:28.260Z,38.60
2023-04-04T23:59:02.497Z,38.65
